30.7°F
Current conditions from King Hill
Updated every 5 minutes
 
  Sunday April 20, 2014

Station Historical Data
Daily Summary for July 3, 2011 Units:  Both    English   Metric
« Previous Day
Next Day »
Daily Weekly Monthly Yearly Custom
  High: Low: Average:
Temperature: 78.7 °F /  25.9 °C 64.0 °F /  17.8 °C 70.9 °F /  21.6 °C
Dew Point: 71.4 °F /  21.9 °C 58.4 °F /  14.7 °C 64.5 °F /  18.1 °C
Humidity: 95% 67% 80%
Wind Speed: 8.0mph /  12.9km/h - 3.5mph /  5.6km/h
Wind Gust: 18.0mph /  29km/h - -
Wind- - SSW
Pressure: 29.84 in /  1010.4 hPa 29.70 in /  1005.6 hPa -
Precipitation: 0.37 in /  9.4 mm    
Historical Graphs
 
 
Tabular Data for July 3, 2011
Time Temperature Dew Point Pressure Wind Wind Speed Wind Gust Humidity Daily Rainfall
00:04 68.6 °F /  20.3 °C 58.4 °F /  14.7 °C 29.84in /  1010.4hPa Calm   8.0mph /  12.9km/h 70% 0.00in /  0mm
00:09 68.8 °F /  20.4 °C 58.6 °F /  14.8 °C 29.84in /  1010.4hPa SW 1.0mph /  1.6km/h 7.0mph /  11.3km/h 70% 0.00in /  0mm
00:14 69.0 °F /  20.6 °C 58.8 °F /  14.9 °C 29.83in /  1010hPa Calm   5.0mph /  8km/h 70% 0.00in /  0mm
00:19 69.1 °F /  20.6 °C 58.5 °F /  14.7 °C 29.83in /  1010hPa SSW 1.0mph /  1.6km/h 5.0mph /  8km/h 69% 0.00in /  0mm
00:24 69.2 °F /  20.7 °C 59.0 °F /  15 °C 29.83in /  1010hPa SSW 2.0mph /  3.2km/h 5.0mph /  8km/h 70% 0.00in /  0mm
00:29 69.4 °F /  20.8 °C 58.8 °F /  14.9 °C 29.83in /  1010hPa SSW 1.0mph /  1.6km/h 5.0mph /  8km/h 69% 0.00in /  0mm
00:34 69.5 °F /  20.8 °C 58.9 °F /  14.9 °C 29.82in /  1009.7hPa SSW 1.0mph /  1.6km/h 5.0mph /  8km/h 69% 0.00in /  0mm
00:39 69.4 °F /  20.8 °C 58.4 °F /  14.7 °C 29.82in /  1009.7hPa SSW 2.0mph /  3.2km/h 6.0mph /  9.7km/h 68% 0.00in /  0mm
00:44 69.5 °F /  20.8 °C 58.9 °F /  14.9 °C 29.82in /  1009.7hPa Calm   6.0mph /  9.7km/h 69% 0.00in /  0mm
00:49 69.5 °F /  20.8 °C 58.9 °F /  14.9 °C 29.82in /  1009.7hPa SSW 1.0mph /  1.6km/h 7.0mph /  11.3km/h 69% 0.00in /  0mm
00:54 69.6 °F /  20.9 °C 58.6 °F /  14.8 °C 29.81in /  1009.4hPa SW 3.0mph /  4.8km/h 8.0mph /  12.9km/h 68% 0.00in /  0mm
00:59 69.7 °F /  20.9 °C 58.7 °F /  14.8 °C 29.81in /  1009.4hPa SSW 2.0mph /  3.2km/h 8.0mph /  12.9km/h 68% 0.00in /  0mm
01:04 69.7 °F /  20.9 °C 58.7 °F /  14.8 °C 29.82in /  1009.7hPa SW 2.0mph /  3.2km/h 7.0mph /  11.3km/h 68% 0.00in /  0mm
01:09 69.6 °F /  20.9 °C 58.6 °F /  14.8 °C 29.81in /  1009.4hPa Calm   7.0mph /  11.3km/h 68% 0.00in /  0mm
01:14 69.5 °F /  20.8 °C 58.5 °F /  14.7 °C 29.81in /  1009.4hPa SSW 3.0mph /  4.8km/h 7.0mph /  11.3km/h 68% 0.00in /  0mm
01:19 69.6 °F /  20.9 °C 58.6 °F /  14.8 °C 29.81in /  1009.4hPa SSW 2.0mph /  3.2km/h 7.0mph /  11.3km/h 68% 0.00in /  0mm
01:24 69.7 °F /  20.9 °C 58.7 °F /  14.8 °C 29.80in /  1009hPa SSW 2.0mph /  3.2km/h 7.0mph /  11.3km/h 68% 0.00in /  0mm
01:29 69.6 °F /  20.9 °C 58.6 °F /  14.8 °C 29.80in /  1009hPa Calm   7.0mph /  11.3km/h 68% 0.00in /  0mm
01:34 69.7 °F /  20.9 °C 58.7 °F /  14.8 °C 29.80in /  1009hPa South 1.0mph /  1.6km/h 9.0mph /  14.5km/h 68% 0.00in /  0mm
01:39 69.7 °F /  20.9 °C 58.7 °F /  14.8 °C 29.80in /  1009hPa SSW 3.0mph /  4.8km/h 9.0mph /  14.5km/h 68% 0.00in /  0mm
01:44 69.9 °F /  21.1 °C 58.5 °F /  14.7 °C 29.80in /  1009hPa SW 1.0mph /  1.6km/h 9.0mph /  14.5km/h 67% 0.00in /  0mm
01:49 69.8 °F /  21 °C 58.8 °F /  14.9 °C 29.80in /  1009hPa SSW 2.0mph /  3.2km/h 7.0mph /  11.3km/h 68% 0.00in /  0mm
01:54 69.9 °F /  21.1 °C 58.5 °F /  14.7 °C 29.80in /  1009hPa Calm   6.0mph /  9.7km/h 67% 0.00in /  0mm
01:59 69.7 °F /  20.9 °C 58.7 °F /  14.8 °C 29.80in /  1009hPa SSW 2.0mph /  3.2km/h 6.0mph /  9.7km/h 68% 0.00in /  0mm
02:04 69.7 °F /  20.9 °C 58.7 °F /  14.8 °C 29.80in /  1009hPa SSW 1.0mph /  1.6km/h 6.0mph /  9.7km/h 68% 0.00in /  0mm
02:09 69.6 °F /  20.9 °C 59.0 °F /  15 °C 29.80in /  1009hPa SW 2.0mph /  3.2km/h 7.0mph /  11.3km/h 69% 0.00in /  0mm
02:14 69.6 °F /  20.9 °C 59.0 °F /  15 °C 29.80in /  1009hPa SW 2.0mph /  3.2km/h 8.0mph /  12.9km/h 69% 0.00in /  0mm
02:19 69.4 °F /  20.8 °C 59.2 °F /  15.1 °C 29.80in /  1009hPa SW 1.0mph /  1.6km/h 8.0mph /  12.9km/h 70% 0.00in /  0mm
02:24 69.4 °F /  20.8 °C 59.2 °F /  15.1 °C 29.80in /  1009hPa SW 2.0mph /  3.2km/h 8.0mph /  12.9km/h 70% 0.00in /  0mm
02:29 69.4 °F /  20.8 °C 59.2 °F /  15.1 °C 29.80in /  1009hPa SW 4.0mph /  6.4km/h 10.0mph /  16.1km/h 70% 0.00in /  0mm
02:34 69.5 °F /  20.8 °C 59.3 °F /  15.2 °C 29.80in /  1009hPa SW 3.0mph /  4.8km/h 10.0mph /  16.1km/h 70% 0.00in /  0mm
02:39 69.6 °F /  20.9 °C 59.4 °F /  15.2 °C 29.80in /  1009hPa SSW 2.0mph /  3.2km/h 9.0mph /  14.5km/h 70% 0.00in /  0mm
02:44 69.6 °F /  20.9 °C 59.4 °F /  15.2 °C 29.79in /  1008.7hPa SSW 3.0mph /  4.8km/h 9.0mph /  14.5km/h 70% 0.00in /  0mm
02:49 69.7 °F /  20.9 °C 59.1 °F /  15.1 °C 29.79in /  1008.7hPa SW 4.0mph /  6.4km/h 9.0mph /  14.5km/h 69% 0.00in /  0mm
02:54 69.7 °F /  20.9 °C 59.1 °F /  15.1 °C 29.79in /  1008.7hPa SSW 2.0mph /  3.2km/h 8.0mph /  12.9km/h 69% 0.00in /  0mm
02:59 69.6 °F /  20.9 °C 59.4 °F /  15.2 °C 29.79in /  1008.7hPa SSW 5.0mph /  8km/h 8.0mph /  12.9km/h 70% 0.00in /  0mm
03:04 69.6 °F /  20.9 °C 59.4 °F /  15.2 °C 29.79in /  1008.7hPa SSW 3.0mph /  4.8km/h 9.0mph /  14.5km/h 70% 0.00in /  0mm
03:14 69.6 °F /  20.9 °C 59.4 °F /  15.2 °C 29.79in /  1008.7hPa SW 1.0mph /  1.6km/h 9.0mph /  14.5km/h 70% 0.00in /  0mm
03:19 69.7 °F /  20.9 °C 59.5 °F /  15.3 °C 29.79in /  1008.7hPa SSW 3.0mph /  4.8km/h 9.0mph /  14.5km/h 70% 0.00in /  0mm
03:29 69.5 °F /  20.8 °C 59.3 °F /  15.2 °C 29.78in /  1008.4hPa SSW 3.0mph /  4.8km/h 9.0mph /  14.5km/h 70% 0.00in /  0mm
03:34 69.5 °F /  20.8 °C 59.7 °F /  15.4 °C 29.78in /  1008.4hPa SSW 2.0mph /  3.2km/h 9.0mph /  14.5km/h 71% 0.00in /  0mm
03:44 69.4 °F /  20.8 °C 59.6 °F /  15.3 °C 29.78in /  1008.4hPa SSW 2.0mph /  3.2km/h 8.0mph /  12.9km/h 71% 0.00in /  0mm
03:49 69.5 °F /  20.8 °C 59.7 °F /  15.4 °C 29.78in /  1008.4hPa SSW 3.0mph /  4.8km/h 9.0mph /  14.5km/h 71% 0.00in /  0mm
03:54 69.5 °F /  20.8 °C 59.7 °F /  15.4 °C 29.78in /  1008.4hPa SW 2.0mph /  3.2km/h 9.0mph /  14.5km/h 71% 0.00in /  0mm
03:59 69.4 °F /  20.8 °C 59.6 °F /  15.3 °C 29.78in /  1008.4hPa SSW 4.0mph /  6.4km/h 9.0mph /  14.5km/h 71% 0.00in /  0mm
04:04 69.4 °F /  20.8 °C 59.6 °F /  15.3 °C 29.78in /  1008.4hPa SW 2.0mph /  3.2km/h 9.0mph /  14.5km/h 71% 0.00in /  0mm
04:09 69.3 °F /  20.7 °C 59.5 °F /  15.3 °C 29.78in /  1008.4hPa SSW 4.0mph /  6.4km/h 9.0mph /  14.5km/h 71% 0.00in /  0mm
04:14 69.2 °F /  20.7 °C 59.4 °F /  15.2 °C 29.78in /  1008.4hPa SSW 2.0mph /  3.2km/h 8.0mph /  12.9km/h 71% 0.00in /  0mm
04:19 69.1 °F /  20.6 °C 59.3 °F /  15.2 °C 29.77in /  1008hPa SW 3.0mph /  4.8km/h 10.0mph /  16.1km/h 71% 0.00in /  0mm
04:24 69.2 °F /  20.7 °C 59.4 °F /  15.2 °C 29.77in /  1008hPa SW 3.0mph /  4.8km/h 10.0mph /  16.1km/h 71% 0.00in /  0mm
04:34 69.1 °F /  20.6 °C 59.7 °F /  15.4 °C 29.77in /  1008hPa SSW 4.0mph /  6.4km/h 10.0mph /  16.1km/h 72% 0.00in /  0mm
04:39 69.1 °F /  20.6 °C 59.7 °F /  15.4 °C 29.77in /  1008hPa SSW 3.0mph /  4.8km/h 10.0mph /  16.1km/h 72% 0.00in /  0mm
04:44 69.0 °F /  20.6 °C 59.6 °F /  15.3 °C 29.77in /  1008hPa SW 2.0mph /  3.2km/h 8.0mph /  12.9km/h 72% 0.00in /  0mm
04:54 68.7 °F /  20.4 °C 59.7 °F /  15.4 °C 29.77in /  1008hPa SSW 1.0mph /  1.6km/h 7.0mph /  11.3km/h 73% 0.00in /  0mm
04:59 68.6 °F /  20.3 °C 59.6 °F /  15.3 °C 29.77in /  1008hPa SW 2.0mph /  3.2km/h 7.0mph /  11.3km/h 73% 0.00in /  0mm
05:04 68.4 °F /  20.2 °C 59.4 °F /  15.2 °C 29.77in /  1008hPa SSW 1.0mph /  1.6km/h 7.0mph /  11.3km/h 73% 0.00in /  0mm
05:09 68.5 °F /  20.3 °C 59.5 °F /  15.3 °C 29.76in /  1007.7hPa SSW 2.0mph /  3.2km/h 9.0mph /  14.5km/h 73% 0.00in /  0mm
05:14 68.7 °F /  20.4 °C 59.7 °F /  15.4 °C 29.76in /  1007.7hPa SW 3.0mph /  4.8km/h 9.0mph /  14.5km/h 73% 0.00in /  0mm
05:19 68.8 °F /  20.4 °C 59.8 °F /  15.4 °C 29.76in /  1007.7hPa SSW 3.0mph /  4.8km/h 6.0mph /  9.7km/h 73% 0.00in /  0mm
05:24 68.7 °F /  20.4 °C 59.7 °F /  15.4 °C 29.77in /  1008hPa SW 2.0mph /  3.2km/h 7.0mph /  11.3km/h 73% 0.00in /  0mm
05:29 68.7 °F /  20.4 °C 60.1 °F /  15.6 °C 29.77in /  1008hPa SSW 1.0mph /  1.6km/h 7.0mph /  11.3km/h 74% 0.00in /  0mm
05:34 68.6 °F /  20.3 °C 60.0 °F /  15.6 °C 29.77in /  1008hPa SW 1.0mph /  1.6km/h 6.0mph /  9.7km/h 74% 0.00in /  0mm
05:39 68.6 °F /  20.3 °C 60.0 °F /  15.6 °C 29.77in /  1008hPa Calm   6.0mph /  9.7km/h 74% 0.00in /  0mm
05:44 68.6 °F /  20.3 °C 60.0 °F /  15.6 °C 29.77in /  1008hPa SW 2.0mph /  3.2km/h 6.0mph /  9.7km/h 74% 0.00in /  0mm
05:49 68.8 °F /  20.4 °C 60.2 °F /  15.7 °C 29.77in /  1008hPa SW 2.0mph /  3.2km/h 7.0mph /  11.3km/h 74% 0.00in /  0mm
05:54 69.0 °F /  20.6 °C 60.4 °F /  15.8 °C 29.77in /  1008hPa SSW 2.0mph /  3.2km/h 7.0mph /  11.3km/h 74% 0.00in /  0mm
05:59 69.2 °F /  20.7 °C 60.6 °F /  15.9 °C 29.77in /  1008hPa SW 1.0mph /  1.6km/h 6.0mph /  9.7km/h 74% 0.00in /  0mm
06:04 69.4 °F /  20.8 °C 60.4 °F /  15.8 °C 29.77in /  1008hPa SW 1.0mph /  1.6km/h 7.0mph /  11.3km/h 73% 0.00in /  0mm
06:09 69.6 °F /  20.9 °C 61.0 °F /  16.1 °C 29.77in /  1008hPa Calm   7.0mph /  11.3km/h 74% 0.00in /  0mm
06:14 69.7 °F /  20.9 °C 61.1 °F /  16.2 °C 29.78in /  1008.4hPa WNW 2.0mph /  3.2km/h 7.0mph /  11.3km/h 74% 0.00in /  0mm
06:19 69.8 °F /  21 °C 61.5 °F /  16.4 °C 29.78in /  1008.4hPa Calm   6.0mph /  9.7km/h 75% 0.00in /  0mm
06:24 69.8 °F /  21 °C 61.9 °F /  16.6 °C 29.78in /  1008.4hPa Calm   6.0mph /  9.7km/h 76% 0.00in /  0mm
06:29 69.8 °F /  21 °C 61.9 °F /  16.6 °C 29.78in /  1008.4hPa SW 2.0mph /  3.2km/h 6.0mph /  9.7km/h 76% 0.00in /  0mm
06:34 69.4 °F /  20.8 °C 61.9 °F /  16.6 °C 29.78in /  1008.4hPa SSW 2.0mph /  3.2km/h 6.0mph /  9.7km/h 77% 0.00in /  0mm
06:39 68.8 °F /  20.4 °C 61.7 °F /  16.5 °C 29.77in /  1008hPa SSW 3.0mph /  4.8km/h 7.0mph /  11.3km/h 78% 0.00in /  0mm
06:44 68.3 °F /  20.2 °C 61.5 °F /  16.4 °C 29.77in /  1008hPa SW 4.0mph /  6.4km/h 10.0mph /  16.1km/h 79% 0.00in /  0mm
06:49 67.9 °F /  19.9 °C 61.5 °F /  16.4 °C 29.77in /  1008hPa SW 3.0mph /  4.8km/h 10.0mph /  16.1km/h 80% 0.00in /  0mm
06:54 67.6 °F /  19.8 °C 61.6 °F /  16.4 °C 29.77in /  1008hPa SW 1.0mph /  1.6km/h 9.0mph /  14.5km/h 81% 0.00in /  0mm
06:59 67.4 °F /  19.7 °C 61.4 °F /  16.3 °C 29.77in /  1008hPa SW 4.0mph /  6.4km/h 8.0mph /  12.9km/h 81% 0.00in /  0mm
07:04 67.2 °F /  19.6 °C 61.5 °F /  16.4 °C 29.78in /  1008.4hPa SW 1.0mph /  1.6km/h 8.0mph /  12.9km/h 82% 0.00in /  0mm
07:09 67.1 °F /  19.5 °C 61.8 °F /  16.6 °C 29.78in /  1008.4hPa West 2.0mph /  3.2km/h 8.0mph /  12.9km/h 83% 0.00in /  0mm
07:14 66.8 °F /  19.3 °C 61.8 °F /  16.6 °C 29.78in /  1008.4hPa Calm   8.0mph /  12.9km/h 84% 0.01in /  0.3mm
07:19 66.4 °F /  19.1 °C 61.4 °F /  16.3 °C 29.78in /  1008.4hPa SSW 4.0mph /  6.4km/h 10.0mph /  16.1km/h 84% 0.01in /  0.3mm
07:24 66.1 °F /  18.9 °C 61.5 °F /  16.4 °C 29.78in /  1008.4hPa SW 4.0mph /  6.4km/h 13.0mph /  20.9km/h 85% 0.01in /  0.3mm
07:29 65.9 °F /  18.8 °C 61.6 °F /  16.4 °C 29.78in /  1008.4hPa SW 5.0mph /  8km/h 13.0mph /  20.9km/h 86% 0.01in /  0.3mm
07:34 65.7 °F /  18.7 °C 61.7 °F /  16.5 °C 29.78in /  1008.4hPa SW 2.0mph /  3.2km/h 9.0mph /  14.5km/h 87% 0.02in /  0.5mm
07:39 65.5 °F /  18.6 °C 61.9 °F /  16.6 °C 29.79in /  1008.7hPa SSW 2.0mph /  3.2km/h 9.0mph /  14.5km/h 88% 0.08in /  2mm
07:44 65.3 °F /  18.5 °C 62.0 °F /  16.7 °C 29.78in /  1008.4hPa SSW 4.0mph /  6.4km/h 10.0mph /  16.1km/h 89% 0.11in /  2.8mm
07:49 65.0 °F /  18.3 °C 62.0 °F /  16.7 °C 29.78in /  1008.4hPa SSW 6.0mph /  9.7km/h 14.0mph /  22.5km/h 90% 0.15in /  3.8mm
07:54 64.9 °F /  18.3 °C 61.9 °F /  16.6 °C 29.78in /  1008.4hPa SSW 7.0mph /  11.3km/h 14.0mph /  22.5km/h 90% 0.19in /  4.8mm
07:59 64.8 °F /  18.2 °C 62.1 °F /  16.7 °C 29.78in /  1008.4hPa SSW 5.0mph /  8km/h 16.0mph /  25.7km/h 91% 0.19in /  4.8mm
08:04 64.7 °F /  18.2 °C 62.0 °F /  16.7 °C 29.76in /  1007.7hPa South 4.0mph /  6.4km/h 16.0mph /  25.7km/h 91% 0.20in /  5.1mm
08:09 64.7 °F /  18.2 °C 62.3 °F /  16.8 °C 29.77in /  1008hPa SSW 7.0mph /  11.3km/h 15.0mph /  24.1km/h 92% 0.24in /  6.1mm
08:14 64.7 °F /  18.2 °C 62.6 °F /  17 °C 29.76in /  1007.7hPa SSW 7.0mph /  11.3km/h 15.0mph /  24.1km/h 93% 0.25in /  6.4mm
08:19 64.7 °F /  18.2 °C 62.6 °F /  17 °C 29.77in /  1008hPa SSW 7.0mph /  11.3km/h 14.0mph /  22.5km/h 93% 0.25in /  6.4mm
08:24 64.6 °F /  18.1 °C 62.5 °F /  16.9 °C 29.76in /  1007.7hPa SSW 5.0mph /  8km/h 16.0mph /  25.7km/h 93% 0.25in /  6.4mm
08:29 64.6 °F /  18.1 °C 62.8 °F /  17.1 °C 29.76in /  1007.7hPa SSW 6.0mph /  9.7km/h 16.0mph /  25.7km/h 94% 0.25in /  6.4mm
08:39 64.8 °F /  18.2 °C 63.0 °F /  17.2 °C 29.75in /  1007.3hPa SSW 6.0mph /  9.7km/h 13.0mph /  20.9km/h 94% 0.26in /  6.6mm
08:44 64.7 °F /  18.2 °C 62.9 °F /  17.2 °C 29.75in /  1007.3hPa SW 3.0mph /  4.8km/h 12.0mph /  19.3km/h 94% 0.26in /  6.6mm
08:49 64.7 °F /  18.2 °C 62.9 °F /  17.2 °C 29.75in /  1007.3hPa SSW 5.0mph /  8km/h 12.0mph /  19.3km/h 94% 0.26in /  6.6mm
08:54 64.7 °F /  18.2 °C 62.9 °F /  17.2 °C 29.75in /  1007.3hPa SSW 5.0mph /  8km/h 11.0mph /  17.7km/h 94% 0.26in /  6.6mm
08:59 64.8 °F /  18.2 °C 63.0 °F /  17.2 °C 29.75in /  1007.3hPa SW 5.0mph /  8km/h 11.0mph /  17.7km/h 94% 0.26in /  6.6mm
09:04 64.8 °F /  18.2 °C 63.0 °F /  17.2 °C 29.75in /  1007.3hPa SW 3.0mph /  4.8km/h 11.0mph /  17.7km/h 94% 0.26in /  6.6mm
09:09 65.0 °F /  18.3 °C 63.2 °F /  17.3 °C 29.75in /  1007.3hPa SW 2.0mph /  3.2km/h 12.0mph /  19.3km/h 94% 0.26in /  6.6mm
09:14 65.2 °F /  18.4 °C 63.4 °F /  17.4 °C 29.76in /  1007.7hPa SW 4.0mph /  6.4km/h 12.0mph /  19.3km/h 94% 0.26in /  6.6mm
09:19 65.6 °F /  18.7 °C 63.8 °F /  17.7 °C 29.76in /  1007.7hPa SW 2.0mph /  3.2km/h 8.0mph /  12.9km/h 94% 0.26in /  6.6mm
09:24 65.9 °F /  18.8 °C 64.4 °F /  18 °C 29.76in /  1007.7hPa SSW 1.0mph /  1.6km/h 8.0mph /  12.9km/h 95% 0.26in /  6.6mm
09:29 66.4 °F /  19.1 °C 64.9 °F /  18.3 °C 29.76in /  1007.7hPa WSW 5.0mph /  8km/h 10.0mph /  16.1km/h 95% 0.26in /  6.6mm
09:34 66.6 °F /  19.2 °C 64.8 °F /  18.2 °C 29.77in /  1008hPa SW 4.0mph /  6.4km/h 10.0mph /  16.1km/h 94% 0.26in /  6.6mm
09:39 66.6 °F /  19.2 °C 64.5 °F /  18.1 °C 29.77in /  1008hPa SW 6.0mph /  9.7km/h 10.0mph /  16.1km/h 93% 0.26in /  6.6mm
09:44 66.7 °F /  19.3 °C 64.6 °F /  18.1 °C 29.77in /  1008hPa WSW 3.0mph /  4.8km/h 11.0mph /  17.7km/h 93% 0.26in /  6.6mm
09:49 66.9 °F /  19.4 °C 64.8 °F /  18.2 °C 29.77in /  1008hPa SW 2.0mph /  3.2km/h 11.0mph /  17.7km/h 93% 0.26in /  6.6mm
09:54 67.0 °F /  19.4 °C 64.9 °F /  18.3 °C 29.77in /  1008hPa WSW 1.0mph /  1.6km/h 8.0mph /  12.9km/h 93% 0.26in /  6.6mm
09:59 66.9 °F /  19.4 °C 64.5 °F /  18.1 °C 29.77in /  1008hPa SSW 2.0mph /  3.2km/h 12.0mph /  19.3km/h 92% 0.26in /  6.6mm
10:04 66.9 °F /  19.4 °C 64.5 °F /  18.1 °C 29.77in /  1008hPa SSW 5.0mph /  8km/h 12.0mph /  19.3km/h 92% 0.26in /  6.6mm
10:09 66.8 °F /  19.3 °C 64.1 °F /  17.8 °C 29.77in /  1008hPa SW 8.0mph /  12.9km/h 13.0mph /  20.9km/h 91% 0.26in /  6.6mm
10:14 67.0 °F /  19.4 °C 64.6 °F /  18.1 °C 29.77in /  1008hPa SW 2.0mph /  3.2km/h 13.0mph /  20.9km/h 92% 0.26in /  6.6mm
10:19 66.9 °F /  19.4 °C 64.2 °F /  17.9 °C 29.77in /  1008hPa SW 7.0mph /  11.3km/h 10.0mph /  16.1km/h 91% 0.26in /  6.6mm
10:24 67.4 °F /  19.7 °C 65.0 °F /  18.3 °C 29.77in /  1008hPa SSW 6.0mph /  9.7km/h 11.0mph /  17.7km/h 92% 0.26in /  6.6mm
10:29 68.0 °F /  20 °C 65.3 °F /  18.5 °C 29.77in /  1008hPa SW 8.0mph /  12.9km/h 15.0mph /  24.1km/h 91% 0.26in /  6.6mm
10:34 69.3 °F /  20.7 °C 66.6 °F /  19.2 °C 29.77in /  1008hPa SSW 6.0mph /  9.7km/h 15.0mph /  24.1km/h 91% 0.26in /  6.6mm
10:44 69.9 °F /  21.1 °C 65.9 °F /  18.8 °C 29.77in /  1008hPa SSW 4.0mph /  6.4km/h 15.0mph /  24.1km/h 87% 0.26in /  6.6mm
10:49 69.7 °F /  20.9 °C 65.7 °F /  18.7 °C 29.77in /  1008hPa SSW 4.0mph /  6.4km/h 15.0mph /  24.1km/h 87% 0.26in /  6.6mm
10:54 69.9 °F /  21.1 °C 65.5 °F /  18.6 °C 29.77in /  1008hPa SW 6.0mph /  9.7km/h 15.0mph /  24.1km/h 86% 0.26in /  6.6mm
10:59 70.0 °F /  21.1 °C 65.3 °F /  18.5 °C 29.77in /  1008hPa SSW 6.0mph /  9.7km/h 18.0mph /  29km/h 85% 0.26in /  6.6mm
11:04 69.8 °F /  21 °C 65.1 °F /  18.4 °C 29.77in /  1008hPa SSW 6.0mph /  9.7km/h 18.0mph /  29km/h 85% 0.26in /  6.6mm
11:09 70.1 °F /  21.2 °C 65.4 °F /  18.6 °C 29.77in /  1008hPa SSW 8.0mph /  12.9km/h 17.0mph /  27.4km/h 85% 0.26in /  6.6mm
11:14 69.9 °F /  21.1 °C 64.8 °F /  18.2 °C 29.77in /  1008hPa SSW 8.0mph /  12.9km/h 18.0mph /  29km/h 84% 0.26in /  6.6mm
11:19 70.1 °F /  21.2 °C 66.1 °F /  18.9 °C 29.76in /  1007.7hPa SW 4.0mph /  6.4km/h 18.0mph /  29km/h 87% 0.26in /  6.6mm
11:24 70.3 °F /  21.3 °C 65.6 °F /  18.7 °C 29.76in /  1007.7hPa SSW 5.0mph /  8km/h 16.0mph /  25.7km/h 85% 0.26in /  6.6mm
11:29 70.7 °F /  21.5 °C 66.0 °F /  18.9 °C 29.76in /  1007.7hPa SSW 5.0mph /  8km/h 16.0mph /  25.7km/h 85% 0.26in /  6.6mm
11:34 71.0 °F /  21.7 °C 66.3 °F /  19.1 °C 29.76in /  1007.7hPa SSW 4.0mph /  6.4km/h 14.0mph /  22.5km/h 85% 0.26in /  6.6mm
11:39 70.9 °F /  21.6 °C 65.5 °F /  18.6 °C 29.76in /  1007.7hPa SSW 6.0mph /  9.7km/h 16.0mph /  25.7km/h 83% 0.26in /  6.6mm
11:44 70.8 °F /  21.6 °C 65.7 °F /  18.7 °C 29.76in /  1007.7hPa SW 8.0mph /  12.9km/h 16.0mph /  25.7km/h 84% 0.26in /  6.6mm
11:54 71.4 °F /  21.9 °C 66.0 °F /  18.9 °C 29.76in /  1007.7hPa SW 5.0mph /  8km/h 13.0mph /  20.9km/h 83% 0.26in /  6.6mm
11:59 71.9 °F /  22.2 °C 66.8 °F /  19.3 °C 29.75in /  1007.3hPa SSW 5.0mph /  8km/h 17.0mph /  27.4km/h 84% 0.26in /  6.6mm
12:04 72.5 °F /  22.5 °C 66.7 °F /  19.3 °C 29.75in /  1007.3hPa SSW 8.0mph /  12.9km/h 18.0mph /  29km/h 82% 0.26in /  6.6mm
12:09 72.9 °F /  22.7 °C 67.4 °F /  19.7 °C 29.75in /  1007.3hPa SSW 4.0mph /  6.4km/h 18.0mph /  29km/h 83% 0.26in /  6.6mm
12:14 73.7 °F /  23.2 °C 67.2 °F /  19.6 °C 29.75in /  1007.3hPa SSW 4.0mph /  6.4km/h 15.0mph /  24.1km/h 80% 0.26in /  6.6mm
12:19 74.5 °F /  23.6 °C 68.3 °F /  20.2 °C 29.75in /  1007.3hPa SSW 2.0mph /  3.2km/h 15.0mph /  24.1km/h 81% 0.26in /  6.6mm
12:24 74.8 °F /  23.8 °C 67.5 °F /  19.7 °C 29.75in /  1007.3hPa SSW 2.0mph /  3.2km/h 12.0mph /  19.3km/h 78% 0.26in /  6.6mm
12:29 74.1 °F /  23.4 °C 67.2 °F /  19.6 °C 29.75in /  1007.3hPa SSW 4.0mph /  6.4km/h 15.0mph /  24.1km/h 79% 0.26in /  6.6mm
12:34 73.6 °F /  23.1 °C 67.1 °F /  19.5 °C 29.75in /  1007.3hPa South 3.0mph /  4.8km/h 15.0mph /  24.1km/h 80% 0.26in /  6.6mm
12:39 73.3 °F /  22.9 °C 66.8 °F /  19.3 °C 29.74in /  1007hPa SSW 3.0mph /  4.8km/h 14.0mph /  22.5km/h 80% 0.26in /  6.6mm
12:44 72.9 °F /  22.7 °C 66.7 °F /  19.3 °C 29.75in /  1007.3hPa SW 4.0mph /  6.4km/h 12.0mph /  19.3km/h 81% 0.26in /  6.6mm
12:49 73.1 °F /  22.8 °C 67.3 °F /  19.6 °C 29.75in /  1007.3hPa SW 6.0mph /  9.7km/h 12.0mph /  19.3km/h 82% 0.26in /  6.6mm
12:54 73.4 °F /  23 °C 67.2 °F /  19.6 °C 29.75in /  1007.3hPa SW 4.0mph /  6.4km/h 13.0mph /  20.9km/h 81% 0.26in /  6.6mm
12:59 73.9 °F /  23.3 °C 67.7 °F /  19.8 °C 29.74in /  1007hPa SW 3.0mph /  4.8km/h 14.0mph /  22.5km/h 81% 0.26in /  6.6mm
13:04 74.1 °F /  23.4 °C 67.9 °F /  19.9 °C 29.74in /  1007hPa SSW 6.0mph /  9.7km/h 15.0mph /  24.1km/h 81% 0.26in /  6.6mm
13:09 74.3 °F /  23.5 °C 68.5 °F /  20.3 °C 29.74in /  1007hPa SSW 3.0mph /  4.8km/h 15.0mph /  24.1km/h 82% 0.26in /  6.6mm
13:14 74.1 °F /  23.4 °C 67.2 °F /  19.6 °C 29.75in /  1007.3hPa SW 6.0mph /  9.7km/h 13.0mph /  20.9km/h 79% 0.26in /  6.6mm
13:19 74.1 °F /  23.4 °C 67.2 °F /  19.6 °C 29.75in /  1007.3hPa SW 7.0mph /  11.3km/h 12.0mph /  19.3km/h 79% 0.26in /  6.6mm
13:29 73.6 °F /  23.1 °C 67.1 °F /  19.5 °C 29.75in /  1007.3hPa SW 7.0mph /  11.3km/h 14.0mph /  22.5km/h 80% 0.26in /  6.6mm
13:34 74.1 °F /  23.4 °C 67.9 °F /  19.9 °C 29.75in /  1007.3hPa SSW 4.0mph /  6.4km/h 13.0mph /  20.9km/h 81% 0.26in /  6.6mm
13:39 74.7 °F /  23.7 °C 68.1 °F /  20.1 °C 29.75in /  1007.3hPa SW 4.0mph /  6.4km/h 13.0mph /  20.9km/h 80% 0.26in /  6.6mm
13:44 75.3 °F /  24.1 °C 68.3 °F /  20.2 °C 29.75in /  1007.3hPa SSW 3.0mph /  4.8km/h 13.0mph /  20.9km/h 79% 0.26in /  6.6mm
13:49 75.8 °F /  24.3 °C 68.1 °F /  20.1 °C 29.75in /  1007.3hPa SW 3.0mph /  4.8km/h 11.0mph /  17.7km/h 77% 0.26in /  6.6mm
13:54 75.9 °F /  24.4 °C 68.6 °F /  20.3 °C 29.75in /  1007.3hPa SW 5.0mph /  8km/h 14.0mph /  22.5km/h 78% 0.26in /  6.6mm
13:59 75.7 °F /  24.3 °C 67.6 °F /  19.8 °C 29.75in /  1007.3hPa SW 5.0mph /  8km/h 14.0mph /  22.5km/h 76% 0.26in /  6.6mm
14:04 75.4 °F /  24.1 °C 67.7 °F /  19.8 °C 29.75in /  1007.3hPa SSW 6.0mph /  9.7km/h 12.0mph /  19.3km/h 77% 0.26in /  6.6mm
14:09 75.7 °F /  24.3 °C 68.0 °F /  20 °C 29.75in /  1007.3hPa SW 6.0mph /  9.7km/h 12.0mph /  19.3km/h 77% 0.26in /  6.6mm
14:14 76.0 °F /  24.4 °C 68.3 °F /  20.2 °C 29.74in /  1007hPa SSW 4.0mph /  6.4km/h 12.0mph /  19.3km/h 77% 0.26in /  6.6mm
14:19 76.1 °F /  24.5 °C 68.0 °F /  20 °C 29.74in /  1007hPa SW 3.0mph /  4.8km/h 11.0mph /  17.7km/h 76% 0.26in /  6.6mm
14:24 76.0 °F /  24.4 °C 68.3 °F /  20.2 °C 29.74in /  1007hPa SW 3.0mph /  4.8km/h 11.0mph /  17.7km/h 77% 0.26in /  6.6mm
14:29 76.9 °F /  24.9 °C 69.1 °F /  20.6 °C 29.74in /  1007hPa WSW 2.0mph /  3.2km/h 11.0mph /  17.7km/h 77% 0.26in /  6.6mm
14:34 78.1 °F /  25.6 °C 70.3 °F /  21.3 °C 29.74in /  1007hPa SW 2.0mph /  3.2km/h 9.0mph /  14.5km/h 77% 0.26in /  6.6mm
14:39 78.5 °F /  25.8 °C 69.1 °F /  20.6 °C 29.74in /  1007hPa SSW 4.0mph /  6.4km/h 13.0mph /  20.9km/h 73% 0.26in /  6.6mm
14:44 78.7 °F /  25.9 °C 69.3 °F /  20.7 °C 29.74in /  1007hPa SSW 6.0mph /  9.7km/h 14.0mph /  22.5km/h 73% 0.26in /  6.6mm
14:49 78.2 °F /  25.7 °C 68.8 °F /  20.4 °C 29.74in /  1007hPa SW 5.0mph /  8km/h 14.0mph /  22.5km/h 73% 0.26in /  6.6mm
14:54 77.6 °F /  25.3 °C 69.1 °F /  20.6 °C 29.74in /  1007hPa SW 7.0mph /  11.3km/h 13.0mph /  20.9km/h 75% 0.26in /  6.6mm
14:59 77.7 °F /  25.4 °C 69.5 °F /  20.8 °C 29.73in /  1006.7hPa SSW 5.0mph /  8km/h 14.0mph /  22.5km/h 76% 0.26in /  6.6mm
15:04 77.5 °F /  25.3 °C 69.0 °F /  20.6 °C 29.74in /  1007hPa South 3.0mph /  4.8km/h 14.0mph /  22.5km/h 75% 0.26in /  6.6mm
15:09 77.3 °F /  25.2 °C 68.8 °F /  20.4 °C 29.73in /  1006.7hPa SW 5.0mph /  8km/h 11.0mph /  17.7km/h 75% 0.26in /  6.6mm
15:14 76.6 °F /  24.8 °C 68.1 °F /  20.1 °C 29.74in /  1007hPa SSW 6.0mph /  9.7km/h 13.0mph /  20.9km/h 75% 0.26in /  6.6mm
15:19 76.4 °F /  24.7 °C 69.0 °F /  20.6 °C 29.73in /  1006.7hPa SW 4.0mph /  6.4km/h 13.0mph /  20.9km/h 78% 0.26in /  6.6mm
15:24 77.0 °F /  25 °C 68.9 °F /  20.5 °C 29.73in /  1006.7hPa SW 5.0mph /  8km/h 13.0mph /  20.9km/h 76% 0.26in /  6.6mm
15:29 77.8 °F /  25.4 °C 70.0 °F /  21.1 °C 29.73in /  1006.7hPa SSW 4.0mph /  6.4km/h 12.0mph /  19.3km/h 77% 0.26in /  6.6mm
15:34 78.2 °F /  25.7 °C 71.2 °F /  21.8 °C 29.73in /  1006.7hPa SSW 3.0mph /  4.8km/h 12.0mph /  19.3km/h 79% 0.26in /  6.6mm
15:39 78.3 °F /  25.7 °C 69.3 °F /  20.7 °C 29.73in /  1006.7hPa SW 4.0mph /  6.4km/h 10.0mph /  16.1km/h 74% 0.26in /  6.6mm
15:44 77.8 °F /  25.4 °C 69.2 °F /  20.7 °C 29.73in /  1006.7hPa SSW 5.0mph /  8km/h 11.0mph /  17.7km/h 75% 0.26in /  6.6mm
15:49 77.8 °F /  25.4 °C 70.0 °F /  21.1 °C 29.72in /  1006.3hPa Calm   11.0mph /  17.7km/h 77% 0.26in /  6.6mm
15:54 78.0 °F /  25.6 °C 69.0 °F /  20.6 °C 29.72in /  1006.3hPa SSW 6.0mph /  9.7km/h 10.0mph /  16.1km/h 74% 0.26in /  6.6mm
15:59 77.3 °F /  25.2 °C 68.8 °F /  20.4 °C 29.73in /  1006.7hPa SW 4.0mph /  6.4km/h 11.0mph /  17.7km/h 75% 0.26in /  6.6mm
16:04 77.3 °F /  25.2 °C 69.5 °F /  20.8 °C 29.73in /  1006.7hPa WSW 5.0mph /  8km/h 11.0mph /  17.7km/h 77% 0.26in /  6.6mm
16:09 77.5 °F /  25.3 °C 69.3 °F /  20.7 °C 29.72in /  1006.3hPa SW 4.0mph /  6.4km/h 12.0mph /  19.3km/h 76% 0.26in /  6.6mm
16:14 77.1 °F /  25.1 °C 69.0 °F /  20.6 °C 29.72in /  1006.3hPa SSW 2.0mph /  3.2km/h 12.0mph /  19.3km/h 76% 0.26in /  6.6mm
16:19 76.4 °F /  24.7 °C 69.0 °F /  20.6 °C 29.72in /  1006.3hPa SSW 1.0mph /  1.6km/h 12.0mph /  19.3km/h 78% 0.26in /  6.6mm
16:24 75.7 °F /  24.3 °C 68.7 °F /  20.4 °C 29.72in /  1006.3hPa Calm   9.0mph /  14.5km/h 79% 0.26in /  6.6mm
16:29 75.3 °F /  24.1 °C 68.3 °F /  20.2 °C 29.72in /  1006.3hPa SW 1.0mph /  1.6km/h 9.0mph /  14.5km/h 79% 0.26in /  6.6mm
16:34 75.2 °F /  24 °C 68.6 °F /  20.3 °C 29.71in /  1006hPa SSW 1.0mph /  1.6km/h 9.0mph /  14.5km/h 80% 0.26in /  6.6mm
16:39 75.1 °F /  23.9 °C 68.5 °F /  20.3 °C 29.71in /  1006hPa SSW 5.0mph /  8km/h 10.0mph /  16.1km/h 80% 0.26in /  6.6mm
16:44 75.2 °F /  24 °C 68.6 °F /  20.3 °C 29.71in /  1006hPa SW 5.0mph /  8km/h 10.0mph /  16.1km/h 80% 0.26in /  6.6mm
16:49 75.4 °F /  24.1 °C 68.8 °F /  20.4 °C 29.71in /  1006hPa SW 5.0mph /  8km/h 11.0mph /  17.7km/h 80% 0.26in /  6.6mm
16:54 76.5 °F /  24.7 °C 69.9 °F /  21.1 °C 29.72in /  1006.3hPa SW 4.0mph /  6.4km/h 13.0mph /  20.9km/h 80% 0.26in /  6.6mm
16:59 77.5 °F /  25.3 °C 70.1 °F /  21.2 °C 29.71in /  1006hPa SW 3.0mph /  4.8km/h 13.0mph /  20.9km/h 78% 0.26in /  6.6mm
17:04 78.4 °F /  25.8 °C 71.4 °F /  21.9 °C 29.71in /  1006hPa SW 5.0mph /  8km/h 11.0mph /  17.7km/h 79% 0.26in /  6.6mm
17:09 78.7 °F /  25.9 °C 70.5 °F /  21.4 °C 29.71in /  1006hPa SW 6.0mph /  9.7km/h 13.0mph /  20.9km/h 76% 0.26in /  6.6mm
17:14 78.7 °F /  25.9 °C 70.1 °F /  21.2 °C 29.71in /  1006hPa SW 6.0mph /  9.7km/h 13.0mph /  20.9km/h 75% 0.26in /  6.6mm
17:19 78.7 °F /  25.9 °C 70.5 °F /  21.4 °C 29.71in /  1006hPa SW 6.0mph /  9.7km/h 13.0mph /  20.9km/h 76% 0.26in /  6.6mm
17:24 78.4 °F /  25.8 °C 69.8 °F /  21 °C 29.71in /  1006hPa SW 7.0mph /  11.3km/h 13.0mph /  20.9km/h 75% 0.26in /  6.6mm
17:34 78.1 °F /  25.6 °C 69.9 °F /  21.1 °C 29.70in /  1005.6hPa SSW 3.0mph /  4.8km/h 13.0mph /  20.9km/h 76% 0.26in /  6.6mm
17:39 77.9 °F /  25.5 °C 69.7 °F /  20.9 °C 29.70in /  1005.6hPa SSW 3.0mph /  4.8km/h 13.0mph /  20.9km/h 76% 0.26in /  6.6mm
17:44 77.8 °F /  25.4 °C 69.6 °F /  20.9 °C 29.70in /  1005.6hPa SSW 5.0mph /  8km/h 13.0mph /  20.9km/h 76% 0.26in /  6.6mm
17:49 77.6 °F /  25.3 °C 69.8 °F /  21 °C 29.70in /  1005.6hPa SSW 5.0mph /  8km/h 12.0mph /  19.3km/h 77% 0.26in /  6.6mm
17:54 77.5 °F /  25.3 °C 69.3 °F /  20.7 °C 29.70in /  1005.6hPa SSW 4.0mph /  6.4km/h 14.0mph /  22.5km/h 76% 0.26in /  6.6mm
17:59 77.5 °F /  25.3 °C 69.7 °F /  20.9 °C 29.70in /  1005.6hPa SSW 3.0mph /  4.8km/h 14.0mph /  22.5km/h 77% 0.26in /  6.6mm
18:04 77.5 °F /  25.3 °C 69.7 °F /  20.9 °C 29.70in /  1005.6hPa SSW 5.0mph /  8km/h 14.0mph /  22.5km/h 77% 0.26in /  6.6mm
18:09 77.6 °F /  25.3 °C 70.2 °F /  21.2 °C 29.70in /  1005.6hPa SW 4.0mph /  6.4km/h 10.0mph /  16.1km/h 78% 0.26in /  6.6mm
18:14 77.6 °F /  25.3 °C 70.2 °F /  21.2 °C 29.70in /  1005.6hPa SW 3.0mph /  4.8km/h 9.0mph /  14.5km/h 78% 0.26in /  6.6mm
18:19 77.6 °F /  25.3 °C 70.6 °F /  21.4 °C 29.71in /  1006hPa SW 3.0mph /  4.8km/h 12.0mph /  19.3km/h 79% 0.26in /  6.6mm
18:24 77.1 °F /  25.1 °C 69.7 °F /  20.9 °C 29.71in /  1006hPa SW 5.0mph /  8km/h 12.0mph /  19.3km/h 78% 0.26in /  6.6mm
18:29 76.9 °F /  24.9 °C 69.5 °F /  20.8 °C 29.71in /  1006hPa WSW 5.0mph /  8km/h 11.0mph /  17.7km/h 78% 0.26in /  6.6mm
18:35 76.7 °F /  24.8 °C 69.7 °F /  20.9 °C 29.70in /  1005.6hPa SW 5.0mph /  8km/h 12.0mph /  19.3km/h 79% 0.26in /  6.6mm
18:39 76.5 °F /  24.7 °C 69.9 °F /  21.1 °C 29.71in /  1006hPa SW 3.0mph /  4.8km/h 12.0mph /  19.3km/h 80% 0.26in /  6.6mm
18:44 76.1 °F /  24.5 °C 69.1 °F /  20.6 °C 29.71in /  1006hPa SW 4.0mph /  6.4km/h 10.0mph /  16.1km/h 79% 0.26in /  6.6mm
18:49 75.5 °F /  24.2 °C 69.3 °F /  20.7 °C 29.70in /  1005.6hPa SW 4.0mph /  6.4km/h 9.0mph /  14.5km/h 81% 0.26in /  6.6mm
18:54 75.0 °F /  23.9 °C 69.1 °F /  20.6 °C 29.70in /  1005.6hPa SW 2.0mph /  3.2km/h 9.0mph /  14.5km/h 82% 0.26in /  6.6mm
18:59 74.5 °F /  23.6 °C 69.0 °F /  20.6 °C 29.70in /  1005.6hPa SW 1.0mph /  1.6km/h 8.0mph /  12.9km/h 83% 0.26in /  6.6mm
19:04 74.1 °F /  23.4 °C 69.0 °F /  20.6 °C 29.70in /  1005.6hPa SSW 3.0mph /  4.8km/h 9.0mph /  14.5km/h 84% 0.26in /  6.6mm
19:09 73.8 °F /  23.2 °C 68.7 °F /  20.4 °C 29.70in /  1005.6hPa SW 3.0mph /  4.8km/h 9.0mph /  14.5km/h 84% 0.26in /  6.6mm
19:14 73.6 °F /  23.1 °C 68.5 °F /  20.3 °C 29.70in /  1005.6hPa SSW 4.0mph /  6.4km/h 8.0mph /  12.9km/h 84% 0.26in /  6.6mm
19:19 73.3 °F /  22.9 °C 68.5 °F /  20.3 °C 29.71in /  1006hPa SW 3.0mph /  4.8km/h 8.0mph /  12.9km/h 85% 0.26in /  6.6mm
19:24 73.1 °F /  22.8 °C 68.3 °F /  20.2 °C 29.70in /  1005.6hPa SW 3.0mph /  4.8km/h 8.0mph /  12.9km/h 85% 0.26in /  6.6mm
19:29 72.9 °F /  22.7 °C 68.1 °F /  20.1 °C 29.70in /  1005.6hPa SSW 1.0mph /  1.6km/h 8.0mph /  12.9km/h 85% 0.26in /  6.6mm
19:34 72.9 °F /  22.7 °C 68.1 °F /  20.1 °C 29.70in /  1005.6hPa SW 4.0mph /  6.4km/h 8.0mph /  12.9km/h 85% 0.26in /  6.6mm
19:39 72.8 °F /  22.7 °C 68.0 °F /  20 °C 29.71in /  1006hPa SSW 2.0mph /  3.2km/h 9.0mph /  14.5km/h 85% 0.26in /  6.6mm
19:44 72.7 °F /  22.6 °C 67.9 °F /  19.9 °C 29.71in /  1006hPa SW 3.0mph /  4.8km/h 9.0mph /  14.5km/h 85% 0.26in /  6.6mm
19:49 72.6 °F /  22.6 °C 67.8 °F /  19.9 °C 29.71in /  1006hPa SW 3.0mph /  4.8km/h 9.0mph /  14.5km/h 85% 0.26in /  6.6mm
19:54 72.5 °F /  22.5 °C 67.7 °F /  19.8 °C 29.72in /  1006.3hPa SSW 5.0mph /  8km/h 8.0mph /  12.9km/h 85% 0.26in /  6.6mm
19:59 72.4 °F /  22.4 °C 67.6 °F /  19.8 °C 29.72in /  1006.3hPa SSW 4.0mph /  6.4km/h 9.0mph /  14.5km/h 85% 0.26in /  6.6mm
20:04 72.4 °F /  22.4 °C 67.6 °F /  19.8 °C 29.72in /  1006.3hPa SW 2.0mph /  3.2km/h 10.0mph /  16.1km/h 85% 0.26in /  6.6mm
20:09 72.2 °F /  22.3 °C 67.4 °F /  19.7 °C 29.73in /  1006.7hPa SW 3.0mph /  4.8km/h 10.0mph /  16.1km/h 85% 0.26in /  6.6mm
20:14 72.1 °F /  22.3 °C 67.7 °F /  19.8 °C 29.73in /  1006.7hPa SSW 3.0mph /  4.8km/h 10.0mph /  16.1km/h 86% 0.26in /  6.6mm
20:19 71.8 °F /  22.1 °C 67.4 °F /  19.7 °C 29.73in /  1006.7hPa SW 6.0mph /  9.7km/h 10.0mph /  16.1km/h 86% 0.26in /  6.6mm
20:24 71.7 °F /  22.1 °C 67.3 °F /  19.6 °C 29.73in /  1006.7hPa SW 3.0mph /  4.8km/h 11.0mph /  17.7km/h 86% 0.26in /  6.6mm
20:29 71.5 °F /  21.9 °C 67.1 °F /  19.5 °C 29.73in /  1006.7hPa SW 4.0mph /  6.4km/h 11.0mph /  17.7km/h 86% 0.26in /  6.6mm
20:34 71.3 °F /  21.8 °C 67.2 °F /  19.6 °C 29.73in /  1006.7hPa SW 3.0mph /  4.8km/h 9.0mph /  14.5km/h 87% 0.26in /  6.6mm
20:39 71.1 °F /  21.7 °C 67.0 °F /  19.4 °C 29.72in /  1006.3hPa SW 3.0mph /  4.8km/h 8.0mph /  12.9km/h 87% 0.26in /  6.6mm
20:44 70.8 °F /  21.6 °C 66.7 °F /  19.3 °C 29.72in /  1006.3hPa SSW 3.0mph /  4.8km/h 8.0mph /  12.9km/h 87% 0.26in /  6.6mm
20:54 70.3 °F /  21.3 °C 66.9 °F /  19.4 °C 29.72in /  1006.3hPa SW 2.0mph /  3.2km/h 8.0mph /  12.9km/h 89% 0.26in /  6.6mm
20:59 70.2 °F /  21.2 °C 66.8 °F /  19.3 °C 29.72in /  1006.3hPa SW 4.0mph /  6.4km/h 11.0mph /  17.7km/h 89% 0.26in /  6.6mm
21:04 70.2 °F /  21.2 °C 66.8 °F /  19.3 °C 29.72in /  1006.3hPa SW 4.0mph /  6.4km/h 11.0mph /  17.7km/h 89% 0.26in /  6.6mm
21:09 70.1 °F /  21.2 °C 66.7 °F /  19.3 °C 29.72in /  1006.3hPa SW 3.0mph /  4.8km/h 8.0mph /  12.9km/h 89% 0.26in /  6.6mm
21:14 70.0 °F /  21.1 °C 66.6 °F /  19.2 °C 29.72in /  1006.3hPa SSW 4.0mph /  6.4km/h 9.0mph /  14.5km/h 89% 0.26in /  6.6mm
21:19 69.9 °F /  21.1 °C 66.5 °F /  19.2 °C 29.72in /  1006.3hPa SSW 2.0mph /  3.2km/h 9.0mph /  14.5km/h 89% 0.26in /  6.6mm
21:24 69.7 °F /  20.9 °C 66.3 °F /  19.1 °C 29.73in /  1006.7hPa SW 2.0mph /  3.2km/h 7.0mph /  11.3km/h 89% 0.26in /  6.6mm
21:29 69.7 °F /  20.9 °C 66.6 °F /  19.2 °C 29.73in /  1006.7hPa SW 3.0mph /  4.8km/h 8.0mph /  12.9km/h 90% 0.26in /  6.6mm
21:34 69.5 °F /  20.8 °C 66.4 °F /  19.1 °C 29.73in /  1006.7hPa SSW 3.0mph /  4.8km/h 10.0mph /  16.1km/h 90% 0.26in /  6.6mm
21:39 69.4 °F /  20.8 °C 66.3 °F /  19.1 °C 29.73in /  1006.7hPa SW 3.0mph /  4.8km/h 10.0mph /  16.1km/h 90% 0.26in /  6.6mm
21:44 69.3 °F /  20.7 °C 66.2 °F /  19 °C 29.73in /  1006.7hPa SSW 3.0mph /  4.8km/h 7.0mph /  11.3km/h 90% 0.26in /  6.6mm
21:49 69.2 °F /  20.7 °C 66.1 °F /  18.9 °C 29.74in /  1007hPa SW 1.0mph /  1.6km/h 7.0mph /  11.3km/h 90% 0.26in /  6.6mm
21:54 69.1 °F /  20.6 °C 66.4 °F /  19.1 °C 29.74in /  1007hPa SW 1.0mph /  1.6km/h 7.0mph /  11.3km/h 91% 0.26in /  6.6mm
21:59 69.2 °F /  20.7 °C 66.5 °F /  19.2 °C 29.74in /  1007hPa SW 2.0mph /  3.2km/h 6.0mph /  9.7km/h 91% 0.26in /  6.6mm
22:04 69.2 °F /  20.7 °C 66.5 °F /  19.2 °C 29.75in /  1007.3hPa SW 2.0mph /  3.2km/h 6.0mph /  9.7km/h 91% 0.26in /  6.6mm
22:09 69.3 °F /  20.7 °C 66.6 °F /  19.2 °C 29.74in /  1007hPa SSW 1.0mph /  1.6km/h 7.0mph /  11.3km/h 91% 0.26in /  6.6mm
22:14 69.3 °F /  20.7 °C 66.6 °F /  19.2 °C 29.75in /  1007.3hPa SSW 1.0mph /  1.6km/h 7.0mph /  11.3km/h 91% 0.26in /  6.6mm
22:19 69.3 °F /  20.7 °C 66.6 °F /  19.2 °C 29.75in /  1007.3hPa SW 1.0mph /  1.6km/h 5.0mph /  8km/h 91% 0.26in /  6.6mm
22:24 69.2 °F /  20.7 °C 66.1 °F /  18.9 °C 29.76in /  1007.7hPa NE 3.0mph /  4.8km/h 10.0mph /  16.1km/h 90% 0.26in /  6.6mm
22:29 68.8 °F /  20.4 °C 64.4 °F /  18 °C 29.77in /  1008hPa NNE 6.0mph /  9.7km/h 17.0mph /  27.4km/h 86% 0.26in /  6.6mm
22:34 68.9 °F /  20.5 °C 63.2 °F /  17.3 °C 29.77in /  1008hPa NNW 2.0mph /  3.2km/h 17.0mph /  27.4km/h 82% 0.26in /  6.6mm
22:39 68.9 °F /  20.5 °C 62.8 °F /  17.1 °C 29.78in /  1008.4hPa Calm   15.0mph /  24.1km/h 81% 0.26in /  6.6mm
22:44 68.9 °F /  20.5 °C 62.5 °F /  16.9 °C 29.78in /  1008.4hPa Calm   6.0mph /  9.7km/h 80% 0.26in /  6.6mm
22:49 68.6 °F /  20.3 °C 62.5 °F /  16.9 °C 29.78in /  1008.4hPa ENE 1.0mph /  1.6km/h 7.0mph /  11.3km/h 81% 0.26in /  6.6mm
22:54 68.2 °F /  20.1 °C 62.2 °F /  16.8 °C 29.76in /  1007.7hPa East 1.0mph /  1.6km/h 8.0mph /  12.9km/h 81% 0.26in /  6.6mm
22:59 67.7 °F /  19.8 °C 61.7 °F /  16.5 °C 29.76in /  1007.7hPa ENE 1.0mph /  1.6km/h 8.0mph /  12.9km/h 81% 0.26in /  6.6mm
23:04 67.2 °F /  19.6 °C 61.5 °F /  16.4 °C 29.76in /  1007.7hPa Calm   7.0mph /  11.3km/h 82% 0.26in /  6.6mm
23:09 66.7 °F /  19.3 °C 61.7 °F /  16.5 °C 29.77in /  1008hPa NE 2.0mph /  3.2km/h 7.0mph /  11.3km/h 84% 0.27in /  6.9mm
23:14 66.1 °F /  18.9 °C 61.8 °F /  16.6 °C 29.78in /  1008.4hPa NE 1.0mph /  1.6km/h 7.0mph /  11.3km/h 86% 0.28in /  7.1mm
23:19 65.7 °F /  18.7 °C 61.7 °F /  16.5 °C 29.78in /  1008.4hPa NNE 1.0mph /  1.6km/h 5.0mph /  8km/h 87% 0.29in /  7.4mm
23:24 65.3 °F /  18.5 °C 61.7 °F /  16.5 °C 29.78in /  1008.4hPa Calm   5.0mph /  8km/h 88% 0.31in /  7.9mm
23:29 65.0 °F /  18.3 °C 61.7 °F /  16.5 °C 29.78in /  1008.4hPa Calm   1.0mph /  1.6km/h 89% 0.32in /  8.1mm
23:34 64.8 °F /  18.2 °C 61.5 °F /  16.4 °C 29.78in /  1008.4hPa Calm   1.0mph /  1.6km/h 89% 0.34in /  8.6mm
23:39 64.6 °F /  18.1 °C 61.6 °F /  16.4 °C 29.79in /  1008.7hPa Calm   1.0mph /  1.6km/h 90% 0.36in /  9.1mm
23:44 64.4 °F /  18 °C 61.4 °F /  16.3 °C 29.79in /  1008.7hPa Calm   4.0mph /  6.4km/h 90% 0.37in /  9.4mm
23:49 64.2 °F /  17.9 °C 61.5 °F /  16.4 °C 29.77in /  1008hPa SSE 3.0mph /  4.8km/h 7.0mph /  11.3km/h 91% 0.37in /  9.4mm
23:54 64.1 °F /  17.8 °C 61.4 °F /  16.3 °C 29.77in /  1008hPa Calm   7.0mph /  11.3km/h 91% 0.37in /  9.4mm
23:59 64.0 °F /  17.8 °C 61.3 °F /  16.3 °C 29.76in /  1007.7hPa SE 1.0mph /  1.6km/h 5.0mph /  8km/h 91% 0.37in /  9.4mm
Westford Weather
Compliments of Weather Underground

 
 
Current Radar Loop:

Copyright © WestfordWeather.net 2007-2014. All rights reserved.